sensor_id;sensor_type;location;lat;lon;timestamp;pressure;altitude;pressure_sealevel;temperature;humidity
31403;BME280;18039;52.188;21.024;2023-03-26T00:01:23;75924.00;;;-141.45;99.07
31403;BME280;18039;52.188;21.024;2023-03-26T00:03:53;75924.00;;;-141.45;99.22
31403;BME280;18039;52.188;21.024;2023-03-26T00:06:26;75917.94;;;-141.45;98.81
31403;BME280;18039;52.188;21.024;2023-03-26T00:08:56;75936.19;;;-141.45;98.55
31403;BME280;18039;52.188;21.024;2023-03-26T00:11:25;75940.22;;;-141.45;98.66
31403;BME280;18039;52.188;21.024;2023-03-26T00:13:54;75940.22;;;-141.45;98.37
31403;BME280;18039;52.188;21.024;2023-03-26T00:16:28;75944.28;;;-141.45;98.46
31403;BME280;18039;52.188;21.024;2023-03-26T00:18:57;75952.38;;;-141.45;98.49
31403;BME280;18039;52.188;21.024;2023-03-26T00:21:26;75948.34;;;-141.45;98.43
31403;BME280;18039;52.188;21.024;2023-03-26T00:23:57;75956.44;;;-141.45;97.95
31403;BME280;18039;52.188;21.024;2023-03-26T00:26:26;75948.34;;;-141.45;97.90
31403;BME280;18039;52.188;21.024;2023-03-26T00:28:56;75956.44;;;-141.45;97.68
31403;BME280;18039;52.188;21.024;2023-03-26T00:31:24;75956.44;;;-141.45;97.51
31403;BME280;18039;52.188;21.024;2023-03-26T00:33:51;75966.56;;;-141.45;97.35
31403;BME280;18039;52.188;21.024;2023-03-26T00:36:23;75968.59;;;-141.45;97.36
31403;BME280;18039;52.188;21.024;2023-03-26T00:38:52;75956.44;;;-141.45;96.38
31403;BME280;18039;52.188;21.024;2023-03-26T00:41:21;75958.47;;;-141.45;96.51
31403;BME280;18039;52.188;21.024;2023-03-26T00:43:53;75960.50;;;-141.45;96.64
31403;BME280;18039;52.188;21.024;2023-03-26T00:46:23;75936.19;;;-141.45;95.67
31403;BME280;18039;52.188;21.024;2023-03-26T00:48:52;75956.44;;;-141.45;95.85
31403;BME280;18039;52.188;21.024;2023-03-26T00:51:20;75960.50;;;-141.45;95.94
31403;BME280;18039;52.188;21.024;2023-03-26T00:53:48;75952.38;;;-141.45;95.97
31403;BME280;18039;52.188;21.024;2023-03-26T00:56:16;75960.50;;;-141.45;95.68
31403;BME280;18039;52.188;21.024;2023-03-26T00:58:44;75960.50;;;-141.45;95.88
31403;BME280;18039;52.188;21.024;2023-03-26T01:01:14;75952.38;;;-141.45;95.59
31403;BME280;18039;52.188;21.024;2023-03-26T01:03:43;75950.38;;;-141.45;95.50
31403;BME280;18039;52.188;21.024;2023-03-26T01:06:33;75950.38;;;-141.45;95.48
31403;BME280;18039;52.188;21.024;2023-03-26T01:09:11;75960.50;;;-141.45;95.39
31403;BME280;18039;52.188;21.024;2023-03-26T01:11:39;75946.31;;;-141.45;94.79
31403;BME280;18039;52.188;21.024;2023-03-26T01:14:14;75928.06;;;-141.45;94.56
31403;BME280;18039;52.188;21.024;2023-03-26T01:16:51;75924.00;;;-141.45;94.80
31403;BME280;18039;52.188;21.024;2023-03-26T01:19:27;75928.06;;;-141.45;94.75
31403;BME280;18039;52.188;21.024;2023-03-26T01:21:57;75930.09;;;-141.45;94.98
31403;BME280;18039;52.188;21.024;2023-03-26T01:24:25;75919.97;;;-141.45;94.33
31403;BME280;18039;52.188;21.024;2023-03-26T01:37:33;75911.84;;;-141.45;94.55
31403;BME280;18039;52.188;21.024;2023-03-26T01:40:22;75903.75;;;-141.45;94.03
31403;BME280;18039;52.188;21.024;2023-03-26T01:43:11;75911.84;;;-141.45;94.35
31403;BME280;18039;52.188;21.024;2023-03-26T01:45:41;75915.91;;;-141.45;93.89
31403;BME280;18039;52.188;21.024;2023-03-26T01:48:11;75915.91;;;-141.45;94.30
31403;BME280;18039;52.188;21.024;2023-03-26T01:50:38;75901.72;;;-141.45;94.52
31403;BME280;18039;52.188;21.024;2023-03-26T01:53:06;75903.75;;;-141.45;94.36
31403;BME280;18039;52.188;21.024;2023-03-26T01:55:44;75901.72;;;-141.45;94.62
31403;BME280;18039;52.188;21.024;2023-03-26T01:58:36;75891.59;;;-141.45;94.65
31403;BME280;18039;52.188;21.024;2023-03-26T02:03:58;75891.59;;;-141.45;94.97
31403;BME280;18039;52.188;21.024;2023-03-26T02:06:40;75891.59;;;-141.45;94.93
31403;BME280;18039;52.188;21.024;2023-03-26T02:09:13;75883.47;;;-141.45;94.88
31403;BME280;18039;52.188;21.024;2023-03-26T02:11:43;75887.53;;;-141.45;95.13
31403;BME280;18039;52.188;21.024;2023-03-26T02:14:12;75881.44;;;-141.45;95.17
31403;BME280;18039;52.188;21.024;2023-03-26T02:16:40;75883.47;;;-141.45;95.06
31403;BME280;18039;52.188;21.024;2023-03-26T02:19:14;75879.44;;;-141.45;95.07
31403;BME280;18039;52.188;21.024;2023-03-26T02:21:48;75871.31;;;-141.45;95.36
31403;BME280;18039;52.188;21.024;2023-03-26T02:24:18;75875.38;;;-141.45;95.55
31403;BME280;18039;52.188;21.024;2023-03-26T02:26:47;75875.38;;;-141.45;95.30
31403;BME280;18039;52.188;21.024;2023-03-26T02:29:15;75871.31;;;-141.45;95.35
31403;BME280;18039;52.188;21.024;2023-03-26T02:31:48;75871.31;;;-141.45;95.29
31403;BME280;18039;52.188;21.024;2023-03-26T02:34:15;75879.44;;;-141.45;95.06
31403;BME280;18039;52.188;21.024;2023-03-26T02:36:51;75881.44;;;-141.45;95.25
31403;BME280;18039;52.188;21.024;2023-03-26T02:39:18;75895.66;;;-141.45;95.50
31403;BME280;18039;52.188;21.024;2023-03-26T02:41:53;75897.66;;;-141.45;95.85
31403;BME280;18039;52.188;21.024;2023-03-26T02:44:20;75893.63;;;-141.45;95.99
31403;BME280;18039;52.188;21.024;2023-03-26T02:46:56;75887.53;;;-141.45;95.65
31403;BME280;18039;52.188;21.024;2023-03-26T02:49:42;75881.44;;;-141.45;95.77
31403;BME280;18039;52.188;21.024;2023-03-26T02:52:13;75883.47;;;-141.45;95.37
31403;BME280;18039;52.188;21.024;2023-03-26T02:54:43;75883.47;;;-141.45;95.27
31403;BME280;18039;52.188;21.024;2023-03-26T02:57:16;75867.28;;;-141.45;95.44
31403;BME280;18039;52.188;21.024;2023-03-26T03:00:04;75867.28;;;-141.45;94.97
31403;BME280;18039;52.188;21.024;2023-03-26T03:02:46;75867.28;;;-141.45;95.15
31403;BME280;18039;52.188;21.024;2023-03-26T03:05:31;75867.28;;;-141.45;95.03
31403;BME280;18039;52.188;21.024;2023-03-26T03:08:23;75867.28;;;-141.45;94.52
31403;BME280;18039;52.188;21.024;2023-03-26T03:11:11;75871.31;;;-141.45;94.49
31403;BME280;18039;52.188;21.024;2023-03-26T03:13:52;75875.38;;;-141.45;94.43
31403;BME280;18039;52.188;21.024;2023-03-26T03:16:22;75879.44;;;-141.45;94.38
31403;BME280;18039;52.188;21.024;2023-03-26T03:18:49;75867.28;;;-141.45;93.97
31403;BME280;18039;52.188;21.024;2023-03-26T03:21:33;75871.31;;;-141.45;94.12
31403;BME280;18039;52.188;21.024;2023-03-26T03:24:00;75871.31;;;-141.45;94.31
31403;BME280;18039;52.188;21.024;2023-03-26T03:26:31;75867.28;;;-141.45;94.31
31403;BME280;18039;52.188;21.024;2023-03-26T03:29:11;75863.22;;;-141.45;93.73
31403;BME280;18039;52.188;21.024;2023-03-26T03:31:39;75855.09;;;-141.45;93.61
31403;BME280;18039;52.188;21.024;2023-03-26T03:34:17;75855.09;;;-141.45;93.53
31403;BME280;18039;52.188;21.024;2023-03-26T03:36:48;75853.09;;;-141.45;93.54
31403;BME280;18039;52.188;21.024;2023-03-26T03:39:29;75849.03;;;-141.45;92.49
31403;BME280;18039;52.188;21.024;2023-03-26T03:41:56;75842.94;;;-141.45;92.28
31403;BME280;18039;52.188;21.024;2023-03-26T03:44:24;75834.84;;;-141.45;91.83
31403;BME280;18039;52.188;21.024;2023-03-26T03:46:51;75842.94;;;-141.45;92.24
31403;BME280;18039;52.188;21.024;2023-03-26T03:49:21;75859.16;;;-141.45;92.59
31403;BME280;18039;52.188;21.024;2023-03-26T03:51:49;75859.16;;;-141.45;92.83
31403;BME280;18039;52.188;21.024;2023-03-26T03:54:26;75853.09;;;-141.45;93.13
31403;BME280;18039;52.188;21.024;2023-03-26T03:57:08;75861.19;;;-141.45;92.77
31403;BME280;18039;52.188;21.024;2023-03-26T03:59:43;75859.16;;;-141.45;92.89
31403;BME280;18039;52.188;21.024;2023-03-26T04:02:15;75851.06;;;-141.45;92.55
31403;BME280;18039;52.188;21.024;2023-03-26T04:04:56;75853.09;;;-141.45;92.73
31403;BME280;18039;52.188;21.024;2023-03-26T04:07:24;75855.09;;;-141.45;92.75
31403;BME280;18039;52.188;21.024;2023-03-26T04:10:15;75857.13;;;-141.45;92.39
31403;BME280;18039;52.188;21.024;2023-03-26T04:13:00;75859.16;;;-141.45;92.78
31403;BME280;18039;52.188;21.024;2023-03-26T04:15:46;75863.22;;;-141.45;92.35
31403;BME280;18039;52.188;21.024;2023-03-26T04:18:14;75859.16;;;-141.45;92.33
31403;BME280;18039;52.188;21.024;2023-03-26T04:20:44;75867.28;;;-141.45;92.45
31403;BME280;18039;52.188;21.024;2023-03-26T04:23:18;75867.28;;;-141.45;92.33
31403;BME280;18039;52.188;21.024;2023-03-26T04:25:51;75871.31;;;-141.45;92.40
31403;BME280;18039;52.188;21.024;2023-03-26T04:28:42;75869.28;;;-141.45;92.78
31403;BME280;18039;52.188;21.024;2023-03-26T04:31:24;75869.28;;;-141.45;92.53
31403;BME280;18039;52.188;21.024;2023-03-26T04:34:02;75867.28;;;-141.45;92.42
31403;BME280;18039;52.188;21.024;2023-03-26T04:36:36;75871.31;;;-141.45;92.04
31403;BME280;18039;52.188;21.024;2023-03-26T04:39:03;75865.25;;;-141.45;92.55
31403;BME280;18039;52.188;21.024;2023-03-26T04:41:55;75861.19;;;-141.45;92.50
31403;BME280;18039;52.188;21.024;2023-03-26T04:44:28;75863.22;;;-141.45;92.01
31403;BME280;18039;52.188;21.024;2023-03-26T04:47:09;75867.28;;;-141.45;92.20
31403;BME280;18039;52.188;21.024;2023-03-26T04:49:44;75861.19;;;-141.45;91.65
31403;BME280;18039;52.188;21.024;2023-03-26T04:52:13;75867.28;;;-141.45;91.79
31403;BME280;18039;52.188;21.024;2023-03-26T04:55:23;75867.28;;;-141.45;91.96
31403;BME280;18039;52.188;21.024;2023-03-26T04:58:02;75871.31;;;-141.45;91.76
31403;BME280;18039;52.188;21.024;2023-03-26T05:00:49;75871.31;;;-141.45;92.03
31403;BME280;18039;52.188;21.024;2023-03-26T05:03:17;75863.22;;;-141.45;91.90
31403;BME280;18039;52.188;21.024;2023-03-26T05:05:47;75867.28;;;-141.45;92.02
31403;BME280;18039;52.188;21.024;2023-03-26T05:08:15;75859.16;;;-141.45;91.95
31403;BME280;18039;52.188;21.024;2023-03-26T05:10:42;75855.09;;;-141.45;91.66
31403;BME280;18039;52.188;21.024;2023-03-26T05:13:14;75847.00;;;-141.45;91.29
31403;BME280;18039;52.188;21.024;2023-03-26T05:15:47;75840.91;;;-141.45;90.88
31403;BME280;18039;52.188;21.024;2023-03-26T05:18:28;75838.91;;;-141.45;90.83
31403;BME280;18039;52.188;21.024;2023-03-26T05:20:55;75838.91;;;-141.45;91.08
31403;BME280;18039;52.188;21.024;2023-03-26T05:23:24;75830.78;;;-141.45;91.28
31403;BME280;18039;52.188;21.024;2023-03-26T05:26:02;75822.69;;;-141.45;90.83
31403;BME280;18039;52.188;21.024;2023-03-26T05:28:30;75814.56;;;-141.45;90.51
31403;BME280;18039;52.188;21.024;2023-03-26T05:31:18;75808.50;;;-141.45;89.98
31403;BME280;18039;52.188;21.024;2023-03-26T05:33:49;75802.41;;;-141.45;89.73
31403;BME280;18039;52.188;21.024;2023-03-26T05:36:17;75798.38;;;-141.45;89.87
31403;BME280;18039;52.188;21.024;2023-03-26T05:38:58;75786.19;;;-141.45;89.45
31403;BME280;18039;52.188;21.024;2023-03-26T05:41:45;75788.22;;;-141.45;89.27
31403;BME280;18039;52.188;21.024;2023-03-26T05:44:13;75782.16;;;-141.45;89.46
31403;BME280;18039;52.188;21.024;2023-03-26T05:46:40;75767.97;;;-141.45;89.30
31403;BME280;18039;52.188;21.024;2023-03-26T05:49:11;75749.72;;;-141.45;86.98
31403;BME280;18039;52.188;21.024;2023-03-26T05:51:38;75759.84;;;-141.45;87.57
31403;BME280;18039;52.188;21.024;2023-03-26T05:54:23;75753.78;;;-141.45;87.91
31403;BME280;18039;52.188;21.024;2023-03-26T05:57:02;75737.56;;;-141.45;87.92
31403;BME280;18039;52.188;21.024;2023-03-26T05:59:48;75721.34;;;-141.45;86.00
31403;BME280;18039;52.188;21.024;2023-03-26T06:02:35;75709.19;;;-141.45;85.95
31403;BME280;18039;52.188;21.024;2023-03-26T06:05:38;75697.03;;;-141.45;85.17
31403;BME280;18039;52.188;21.024;2023-03-26T06:08:14;75692.97;;;-141.45;85.07
31403;BME280;18039;52.188;21.024;2023-03-26T06:10:49;75680.81;;;-141.45;85.30
31403;BME280;18039;52.188;21.024;2023-03-26T06:13:19;75668.66;;;-141.45;83.70
31403;BME280;18039;52.188;21.024;2023-03-26T06:15:50;75668.66;;;-141.45;83.56
31403;BME280;18039;52.188;21.024;2023-03-26T06:18:32;75672.72;;;-141.45;83.71
31403;BME280;18039;52.188;21.024;2023-03-26T06:21:18;75646.38;;;-141.45;82.41
31403;BME280;18039;52.188;21.024;2023-03-26T06:23:50;75660.56;;;-141.45;82.67
31403;BME280;18039;52.188;21.024;2023-03-26T06:26:41;75668.66;;;-141.45;83.35
31403;BME280;18039;52.188;21.024;2023-03-26T06:29:27;75692.97;;;-141.45;84.62
31403;BME280;18039;52.188;21.024;2023-03-26T06:31:57;75729.47;;;-141.45;87.83
31403;BME280;18039;52.188;21.024;2023-03-26T06:34:55;75770.00;;;-141.45;90.94
31403;BME280;18039;52.188;21.024;2023-03-26T06:37:23;75798.38;;;-141.45;92.99
31403;BME280;18039;52.188;21.024;2023-03-26T06:39:56;75822.69;;;-141.45;94.31
31403;BME280;18039;52.188;21.024;2023-03-26T06:42:42;75822.69;;;-141.45;95.42
31403;BME280;18039;52.188;21.024;2023-03-26T06:45:51;75818.63;;;-141.45;96.37
31403;BME280;18039;52.188;21.024;2023-03-26T06:48:41;75816.59;;;-141.45;96.94
31403;BME280;18039;52.188;21.024;2023-03-26T06:51:11;75814.56;;;-141.45;97.11
31403;BME280;18039;52.188;21.024;2023-03-26T06:53:57;75820.66;;;-141.45;97.25
31403;BME280;18039;52.188;21.024;2023-03-26T06:56:47;75822.69;;;-141.45;97.25
31403;BME280;18039;52.188;21.024;2023-03-26T06:59:23;75826.72;;;-141.45;97.04
31403;BME280;18039;52.188;21.024;2023-03-26T07:02:10;75818.63;;;-141.45;96.97
31403;BME280;18039;52.188;21.024;2023-03-26T07:04:58;75804.44;;;-141.45;97.07
31403;BME280;18039;52.188;21.024;2023-03-26T07:07:43;75790.25;;;-141.45;96.48
31403;BME280;18039;52.188;21.024;2023-03-26T07:10:32;75770.00;;;-141.45;96.45
31403;BME280;18039;52.188;21.024;2023-03-26T07:13:10;75761.88;;;-141.45;96.74
31403;BME280;18039;52.188;21.024;2023-03-26T07:15:56;75741.63;;;-141.45;95.26
31403;BME280;18039;52.188;21.024;2023-03-26T07:18:49;75711.22;;;-141.45;95.67
31403;BME280;18039;52.188;21.024;2023-03-26T07:21:21;75680.81;;;-141.45;94.84
31403;BME280;18039;52.188;21.024;2023-03-26T07:23:50;75660.56;;;-141.45;93.97
31403;BME280;18039;52.188;21.024;2023-03-26T07:27:02;75652.44;;;-141.45;92.81
31403;BME280;18039;52.188;21.024;2023-03-26T07:29:51;75622.06;;;-141.45;93.29
31403;BME280;18039;52.188;21.024;2023-03-26T07:32:48;75595.69;;;-141.45;91.00
31403;BME280;18039;52.188;21.024;2023-03-26T07:35:54;75571.38;;;-141.45;89.00
31403;BME280;18039;52.188;21.024;2023-03-26T07:41:58;75528.84;;;-141.45;86.74
31403;BME280;18039;52.188;21.024;2023-03-26T07:47:41;75510.59;;;-141.45;86.83
31403;BME280;18039;52.188;21.024;2023-03-26T07:50:35;75510.59;;;-141.45;85.65
31403;BME280;18039;52.188;21.024;2023-03-26T07:53:09;75510.59;;;-141.45;84.07
31403;BME280;18039;52.188;21.024;2023-03-26T07:59:14;75500.47;;;-141.45;83.20
31403;BME280;18039;52.188;21.024;2023-03-26T08:08:18;75518.69;;;-141.45;82.53
31403;BME280;18039;52.188;21.024;2023-03-26T08:16:39;75490.31;;;-141.45;81.22
31403;BME280;18039;52.188;21.024;2023-03-26T08:21:54;75482.22;;;-141.45;82.31
31403;BME280;18039;52.188;21.024;2023-03-26T08:24:35;75476.16;;;-141.45;81.16
31403;BME280;18039;52.188;21.024;2023-03-26T08:27:15;75445.75;;;-141.45;79.00
31403;BME280;18039;52.188;21.024;2023-03-26T08:30:20;75449.81;;;-141.45;80.25
31403;BME280;18039;52.188;21.024;2023-03-26T08:32:54;75482.22;;;-141.45;79.80
31403;BME280;18039;52.188;21.024;2023-03-26T08:35:23;75482.22;;;-141.45;80.39
31403;BME280;18039;52.188;21.024;2023-03-26T08:37:51;75494.38;;;-141.45;81.53
31403;BME280;18039;52.188;21.024;2023-03-26T08:46:24;75437.63;;;-141.45;79.66
31403;BME280;18039;52.188;21.024;2023-03-26T09:12:30;75459.94;;;-141.45;79.83
31403;BME280;18039;52.188;21.024;2023-03-26T09:23:27;75615.97;;;-141.45;87.89
31403;BME280;18039;52.188;21.024;2023-03-26T09:32:24;75587.59;;;-141.45;84.84
31403;BME280;18039;52.188;21.024;2023-03-26T09:40:57;75470.06;;;-141.45;81.59
31403;BME280;18039;52.188;21.024;2023-03-26T09:48:39;75437.63;;;-141.45;76.75
31403;BME280;18039;52.188;21.024;2023-03-26T09:54:09;75445.75;;;-141.45;77.21
31403;BME280;18039;52.188;21.024;2023-03-26T09:57:01;75445.75;;;-141.45;75.41
31403;BME280;18039;52.188;21.024;2023-03-26T10:02:16;75461.97;;;-141.45;77.51
31403;BME280;18039;52.188;21.024;2023-03-26T10:05:29;75437.63;;;-141.45;76.18
31403;BME280;18039;52.188;21.024;2023-03-26T10:11:02;75413.31;;;-141.45;73.36
31403;BME280;18039;52.188;21.024;2023-03-26T10:16:24;75384.97;;;-141.45;74.68
31403;BME280;18039;52.188;21.024;2023-03-26T10:25:14;75352.53;;;-141.45;72.37
31403;BME280;18039;52.188;21.024;2023-03-26T10:52:21;75551.13;;;-141.45;75.43
31403;BME280;18039;52.188;21.024;2023-03-26T10:57:44;75684.88;;;-141.45;85.98
31403;BME280;18039;52.188;21.024;2023-03-26T11:05:46;75692.97;;;-141.45;90.01
31403;BME280;18039;52.188;21.024;2023-03-26T11:08:45;75656.50;;;-141.45;89.20
31403;BME280;18039;52.188;21.024;2023-03-26T11:16:57;75500.47;;;-141.45;86.91
31403;BME280;18039;52.188;21.024;2023-03-26T11:19:29;75466.00;;;-141.45;86.30
31403;BME280;18039;52.188;21.024;2023-03-26T11:29:55;75466.00;;;-141.45;85.45
31403;BME280;18039;52.188;21.024;2023-03-26T11:32:47;75413.31;;;-141.45;84.04
31403;BME280;18039;52.188;21.024;2023-03-26T11:35:35;75370.78;;;-141.45;78.65
31403;BME280;18039;52.188;21.024;2023-03-26T11:38:22;75348.47;;;-141.45;75.56
31403;BME280;18039;52.188;21.024;2023-03-26T11:40:54;75354.56;;;-141.45;72.81
31403;BME280;18039;52.188;21.024;2023-03-26T11:44:22;75348.47;;;-141.45;74.93
31403;BME280;18039;52.188;21.024;2023-03-26T11:46:54;75352.53;;;-141.45;73.36
31403;BME280;18039;52.188;21.024;2023-03-26T11:49:27;75336.31;;;-141.45;72.98
31403;BME280;18039;52.188;21.024;2023-03-26T11:51:55;75320.13;;;-141.45;71.19
31403;BME280;18039;52.188;21.024;2023-03-26T11:54:22;75307.94;;;-141.45;71.19
31403;BME280;18039;52.188;21.024;2023-03-26T11:56:56;75289.72;;;-141.45;70.39
31403;BME280;18039;52.188;21.024;2023-03-26T11:59:37;75297.81;;;-141.45;70.39
31403;BME280;18039;52.188;21.024;2023-03-26T12:02:25;75285.66;;;-141.45;70.06
31403;BME280;18039;52.188;21.024;2023-03-26T12:05:21;75283.63;;;-141.45;69.25
31403;BME280;18039;52.188;21.024;2023-03-26T12:07:53;75255.25;;;-141.45;68.87
31403;BME280;18039;52.188;21.024;2023-03-26T12:13:12;75182.31;;;-141.45;64.40
31403;BME280;18039;52.188;21.024;2023-03-26T12:15:42;75186.38;;;-141.45;65.68
31403;BME280;18039;52.188;21.024;2023-03-26T12:18:26;75218.78;;;-141.45;64.87
31403;BME280;18039;52.188;21.024;2023-03-26T12:21:14;75243.09;;;-141.45;65.62
31403;BME280;18039;52.188;21.024;2023-03-26T12:26:42;75295.78;;;-141.45;66.33
31403;BME280;18039;52.188;21.024;2023-03-26T12:29:17;75285.66;;;-141.45;65.70
31403;BME280;18039;52.188;21.024;2023-03-26T12:31:51;75299.84;;;-141.45;65.48
31403;BME280;18039;52.188;21.024;2023-03-26T12:34:22;75326.19;;;-141.45;65.76
31403;BME280;18039;52.188;21.024;2023-03-26T12:36:56;75352.53;;;-141.45;67.63
31403;BME280;18039;52.188;21.024;2023-03-26T12:39:38;75342.41;;;-141.45;68.05
31403;BME280;18039;52.188;21.024;2023-03-26T12:42:28;75336.31;;;-141.45;68.20
31403;BME280;18039;52.188;21.024;2023-03-26T12:45:23;75312.00;;;-141.45;68.45
31403;BME280;18039;52.188;21.024;2023-03-26T12:47:55;75291.75;;;-141.45;67.69
31403;BME280;18039;52.188;21.024;2023-03-26T12:56:00;75208.66;;;-141.45;66.37
31403;BME280;18039;52.188;21.024;2023-03-26T13:01:05;75226.91;;;-141.45;65.44
31403;BME280;18039;52.188;21.024;2023-03-26T13:06:53;75283.63;;;-141.45;66.81
31403;BME280;18039;52.188;21.024;2023-03-26T13:10:11;75312.00;;;-141.45;68.37
31403;BME280;18039;52.188;21.024;2023-03-26T13:15:36;75336.31;;;-141.45;72.91
31403;BME280;18039;52.188;21.024;2023-03-26T13:23:56;75352.53;;;-141.45;73.36
31403;BME280;18039;52.188;21.024;2023-03-26T13:29:25;75340.38;;;-141.45;71.01
31403;BME280;18039;52.188;21.024;2023-03-26T13:37:35;75285.66;;;-141.45;68.85
31403;BME280;18039;52.188;21.024;2023-03-26T13:40:21;75247.16;;;-141.45;68.38
31403;BME280;18039;52.188;21.024;2023-03-26T13:48:22;75251.22;;;-141.45;67.02
31403;BME280;18039;52.188;21.024;2023-03-26T13:51:12;75259.31;;;-141.45;67.67
31403;BME280;18039;52.188;21.024;2023-03-26T13:54:09;75281.59;;;-141.45;68.09
31403;BME280;18039;52.188;21.024;2023-03-26T13:56:43;75291.75;;;-141.45;68.78
31403;BME280;18039;52.188;21.024;2023-03-26T13:59:19;75305.94;;;-141.45;69.72
31403;BME280;18039;52.188;21.024;2023-03-26T14:01:54;75299.84;;;-141.45;68.26
31403;BME280;18039;52.188;21.024;2023-03-26T14:04:29;75328.22;;;-141.45;66.30
31403;BME280;18039;52.188;21.024;2023-03-26T14:07:12;75328.22;;;-141.45;65.84
31403;BME280;18039;52.188;21.024;2023-03-26T14:15:20;75291.75;;;-141.45;63.31
31403;BME280;18039;52.188;21.024;2023-03-26T14:17:57;75263.38;;;-141.45;64.86
31403;BME280;18039;52.188;21.024;2023-03-26T14:20:47;75251.22;;;-141.45;62.29
31403;BME280;18039;52.188;21.024;2023-03-26T14:37:28;75218.78;;;-141.45;58.76
31403;BME280;18039;52.188;21.024;2023-03-26T14:54:10;75226.91;;;-141.45;62.91
31403;BME280;18039;52.188;21.024;2023-03-26T14:59:51;75247.16;;;-141.45;63.04
31403;BME280;18039;52.188;21.024;2023-03-26T15:12:03;75275.53;;;-141.45;61.30
31403;BME280;18039;52.188;21.024;2023-03-26T15:18:31;75291.75;;;-141.45;62.25
31403;BME280;18039;52.188;21.024;2023-03-26T15:36:15;75336.31;;;-141.45;61.74
31403;BME280;18039;52.188;21.024;2023-03-26T15:44:59;75352.53;;;-141.45;62.49
31403;BME280;18039;52.188;21.024;2023-03-26T15:50:51;75352.53;;;-141.45;63.74
31403;BME280;18039;52.188;21.024;2023-03-26T16:01:49;75348.47;;;-141.45;65.06
31403;BME280;18039;52.188;21.024;2023-03-26T16:13:33;75358.63;;;-141.45;66.41
31403;BME280;18039;52.188;21.024;2023-03-26T16:29:14;75425.47;;;-141.45;68.67
31403;BME280;18039;52.188;21.024;2023-03-26T16:34:58;75421.44;;;-141.45;67.66
31403;BME280;18039;52.188;21.024;2023-03-26T16:37:35;75413.31;;;-141.45;67.07
31403;BME280;18039;52.188;21.024;2023-03-26T16:52:03;75478.16;;;-141.45;69.62
31403;BME280;18039;52.188;21.024;2023-03-26T16:54:41;75500.47;;;-141.45;70.12
31403;BME280;18039;52.188;21.024;2023-03-26T17:08:00;75567.34;;;-141.45;72.60
31403;BME280;18039;52.188;21.024;2023-03-26T17:10:54;75561.25;;;-141.45;72.02
31403;BME280;18039;52.188;21.024;2023-03-26T17:22:09;75591.66;;;-141.45;73.24
31403;BME280;18039;52.188;21.024;2023-03-26T17:24:56;75607.88;;;-141.45;73.69
31403;BME280;18039;52.188;21.024;2023-03-26T17:33:27;75644.34;;;-141.45;74.67
31403;BME280;18039;52.188;21.024;2023-03-26T17:41:12;75654.47;;;-141.45;75.21
31403;BME280;18039;52.188;21.024;2023-03-26T17:43:50;75664.59;;;-141.45;75.39
31403;BME280;18039;52.188;21.024;2023-03-26T17:46:36;75664.59;;;-141.45;76.14
31403;BME280;18039;52.188;21.024;2023-03-26T17:51:51;75674.75;;;-141.45;76.15
31403;BME280;18039;52.188;21.024;2023-03-26T17:54:45;75680.81;;;-141.45;76.59
31403;BME280;18039;52.188;21.024;2023-03-26T17:59:49;75701.09;;;-141.45;77.43
31403;BME280;18039;52.188;21.024;2023-03-26T18:02:22;75709.19;;;-141.45;77.57
31403;BME280;18039;52.188;21.024;2023-03-26T18:04:54;75717.28;;;-141.45;77.76
31403;BME280;18039;52.188;21.024;2023-03-26T18:15:58;75737.56;;;-141.45;78.70
31403;BME280;18039;52.188;21.024;2023-03-26T18:18:59;75743.66;;;-141.45;78.79
31403;BME280;18039;52.188;21.024;2023-03-26T18:21:35;75745.66;;;-141.45;79.04
31403;BME280;18039;52.188;21.024;2023-03-26T18:24:05;75753.78;;;-141.45;79.36
31403;BME280;18039;52.188;21.024;2023-03-26T18:27:12;75765.94;;;-141.45;79.46
31403;BME280;18039;52.188;21.024;2023-03-26T18:32:30;75767.97;;;-141.45;80.04
31403;BME280;18039;52.188;21.024;2023-03-26T18:35:20;75782.16;;;-141.45;79.95
31403;BME280;18039;52.188;21.024;2023-03-26T18:37:49;75776.06;;;-141.45;80.23
31403;BME280;18039;52.188;21.024;2023-03-26T18:40:22;75774.03;;;-141.45;80.25
31403;BME280;18039;52.188;21.024;2023-03-26T18:42:52;75774.03;;;-141.45;80.54
31403;BME280;18039;52.188;21.024;2023-03-26T18:45:35;75765.94;;;-141.45;80.57
31403;BME280;18039;52.188;21.024;2023-03-26T18:48:05;75757.81;;;-141.45;80.63
31403;BME280;18039;52.188;21.024;2023-03-26T18:50:39;75765.94;;;-141.45;80.82
31403;BME280;18039;52.188;21.024;2023-03-26T18:53:16;75753.78;;;-141.45;81.09
31403;BME280;18039;52.188;21.024;2023-03-26T18:55:47;75759.84;;;-141.45;81.17
31403;BME280;18039;52.188;21.024;2023-03-26T18:58:24;75761.88;;;-141.45;81.31
31403;BME280;18039;52.188;21.024;2023-03-26T19:01:00;75757.81;;;-141.45;81.37
31403;BME280;18039;52.188;21.024;2023-03-26T19:03:33;75770.00;;;-141.45;81.70
31403;BME280;18039;52.188;21.024;2023-03-26T19:06:02;75770.00;;;-141.45;81.64
31403;BME280;18039;52.188;21.024;2023-03-26T19:08:37;75778.09;;;-141.45;82.11
31403;BME280;18039;52.188;21.024;2023-03-26T19:11:05;75786.19;;;-141.45;82.31
31403;BME280;18039;52.188;21.024;2023-03-26T19:13:36;75786.19;;;-141.45;82.35
31403;BME280;18039;52.188;21.024;2023-03-26T19:16:28;75786.19;;;-141.45;82.72
31403;BME280;18039;52.188;21.024;2023-03-26T19:19:02;75778.09;;;-141.45;82.19
31403;BME280;18039;52.188;21.024;2023-03-26T19:21:32;75786.19;;;-141.45;82.42
31403;BME280;18039;52.188;21.024;2023-03-26T19:24:01;75782.16;;;-141.45;82.50
31403;BME280;18039;52.188;21.024;2023-03-26T19:26:29;75786.19;;;-141.45;82.47